createdAt,value
2018-10-16T00:02:26.199Z,60.55
2018-10-16T00:04:59.604Z,60.51
2018-10-16T00:07:31.299Z,60.77
2018-10-16T00:10:02.630Z,61.09
2018-10-16T00:12:34.002Z,61.12
2018-10-16T00:15:05.375Z,61.14
2018-10-16T00:17:37.001Z,61.29
2018-10-16T00:20:09.433Z,61.47
2018-10-16T00:22:41.611Z,61.63
2018-10-16T00:25:18.248Z,61.85
2018-10-16T00:27:49.667Z,61.99
2018-10-16T00:30:21.208Z,62.10
2018-10-16T00:32:52.573Z,62.06
2018-10-16T00:35:24.018Z,62.30
2018-10-16T00:37:55.372Z,62.36
2018-10-16T00:40:27.197Z,62.34
2018-10-16T00:42:58.530Z,62.45
2018-10-16T00:45:30.587Z,62.53
2018-10-16T00:48:02.774Z,62.55
2018-10-16T00:50:34.770Z,62.56
2018-10-16T00:53:06.452Z,62.69
2018-10-16T00:55:37.951Z,62.78
2018-10-16T00:58:09.545Z,62.80
2018-10-16T01:00:40.866Z,62.55
2018-10-16T01:03:12.179Z,62.49
2018-10-16T01:05:43.866Z,62.67
2018-10-16T01:08:15.210Z,62.64
2018-10-16T01:10:47.198Z,62.72
2018-10-16T01:13:18.845Z,62.78
2018-10-16T01:15:50.228Z,62.87
2018-10-16T01:18:21.570Z,62.89
2018-10-16T01:20:53.127Z,62.73
2018-10-16T01:23:24.470Z,62.31
2018-10-16T01:25:56.129Z,62.36
2018-10-16T01:28:27.670Z,62.49
2018-10-16T01:30:59.384Z,62.47
2018-10-16T01:33:33.436Z,62.52
2018-10-16T01:36:05.290Z,62.54
2018-10-16T01:38:36.566Z,62.49
2018-10-16T01:41:08.763Z,62.29
2018-10-16T01:43:41.005Z,62.08
2018-10-16T01:46:12.329Z,62.03
2018-10-16T01:48:43.682Z,62.17
2018-10-16T01:51:15.008Z,62.09
2018-10-16T01:53:46.305Z,62.02
2018-10-16T01:56:17.662Z,61.86
2018-10-16T01:58:49.131Z,62.13
2018-10-16T02:01:21.226Z,62.24
2018-10-16T02:03:52.896Z,62.08
2018-10-16T02:06:24.444Z,61.88
2018-10-16T02:08:57.562Z,61.45
2018-10-16T02:11:31.099Z,61.50
2018-10-16T02:14:03.070Z,61.71
2018-10-16T02:16:34.403Z,61.96
2018-10-16T02:19:05.723Z,61.94
2018-10-16T02:21:37.180Z,61.97
2018-10-16T02:24:11.086Z,61.90
2018-10-16T02:26:42.411Z,61.97
2018-10-16T02:29:13.736Z,62.02
2018-10-16T02:31:45.041Z,62.26
2018-10-16T02:34:16.728Z,62.58
2018-10-16T02:36:48.040Z,62.54
2018-10-16T02:39:20.548Z,62.38
2018-10-16T02:41:52.220Z,62.37
2018-10-16T02:44:23.529Z,62.33
2018-10-16T02:46:55.168Z,62.33
2018-10-16T02:49:26.758Z,62.19
2018-10-16T02:51:58.455Z,62.00
2018-10-16T02:54:29.816Z,62.08
2018-10-16T02:57:01.123Z,62.15
2018-10-16T02:59:32.478Z,62.42
2018-10-16T03:02:04.284Z,62.36
2018-10-16T03:04:35.611Z,62.70
2018-10-16T03:07:07.357Z,62.69
2018-10-16T03:09:40.265Z,62.94
2018-10-16T03:12:12.229Z,63.21
2018-10-16T03:14:44.226Z,63.43
2018-10-16T03:17:15.824Z,63.48
2018-10-16T03:19:47.700Z,63.51
2018-10-16T03:22:19.872Z,63.41
2018-10-16T03:24:51.619Z,63.24
2018-10-16T03:27:22.979Z,63.39
2018-10-16T03:29:54.325Z,63.38
2018-10-16T03:32:25.647Z,63.26
2018-10-16T03:34:57.020Z,62.83
2018-10-16T03:37:28.343Z,62.61
2018-10-16T03:39:59.717Z,62.88
2018-10-16T03:42:31.029Z,62.85
2018-10-16T03:45:02.595Z,62.94
2018-10-16T03:47:34.007Z,63.05
2018-10-16T03:50:05.755Z,62.66
2018-10-16T03:52:37.390Z,62.44
2018-10-16T03:55:09.161Z,62.50
2018-10-16T03:57:50.212Z,62.71
2018-10-16T04:00:23.257Z,62.87
2018-10-16T04:02:53.508Z,62.83
2018-10-16T04:05:24.833Z,63.07
2018-10-16T04:07:56.965Z,63.20
2018-10-16T04:10:28.280Z,63.34
2018-10-16T04:12:59.831Z,63.58
2018-10-16T04:15:31.183Z,63.74
2018-10-16T04:18:02.809Z,63.67
2018-10-16T04:20:34.673Z,63.61
2018-10-16T04:23:06.099Z,63.88
2018-10-16T04:25:37.408Z,63.75
2018-10-16T04:28:09.075Z,63.55
2018-10-16T04:30:40.809Z,63.44
2018-10-16T04:33:12.591Z,63.36
2018-10-16T04:35:43.910Z,63.37
2018-10-16T04:38:16.460Z,63.49
2018-10-16T04:40:47.993Z,63.25
2018-10-16T04:43:19.691Z,63.24
2018-10-16T04:45:51.025Z,63.36
2018-10-16T04:48:23.341Z,63.14
2018-10-16T04:50:54.690Z,63.21
2018-10-16T04:53:27.149Z,63.14
2018-10-16T04:55:58.484Z,63.53
2018-10-16T04:58:30.422Z,63.80
2018-10-16T05:01:01.792Z,63.50
2018-10-16T05:03:33.474Z,63.30
2018-10-16T05:06:04.839Z,63.20
2018-10-16T05:08:36.316Z,63.03
2018-10-16T05:11:08.156Z,62.67
2018-10-16T05:13:39.468Z,62.41
2018-10-16T05:16:10.893Z,62.09
2018-10-16T05:18:42.312Z,61.68
2018-10-16T05:21:13.837Z,61.63
2018-10-16T05:23:45.172Z,61.46
2018-10-16T05:26:16.881Z,61.38
2018-10-16T05:28:48.216Z,61.37
2018-10-16T05:31:20.235Z,61.42
2018-10-16T05:33:51.440Z,61.45
2018-10-16T05:36:22.748Z,61.10
2018-10-16T05:38:54.086Z,60.63
2018-10-16T05:41:25.423Z,60.54
2018-10-16T05:43:56.728Z,60.61
2018-10-16T05:46:28.396Z,60.44
2018-10-16T05:49:00.070Z,60.31
2018-10-16T05:51:31.445Z,60.29
2018-10-16T05:54:03.264Z,60.12
2018-10-16T05:56:34.583Z,59.80
2018-10-16T05:59:05.913Z,59.67
2018-10-16T06:01:37.242Z,59.77
2018-10-16T06:04:09.067Z,60.13
2018-10-16T06:06:41.031Z,60.61
2018-10-16T06:09:12.743Z,60.66
2018-10-16T06:11:44.175Z,60.74
2018-10-16T06:14:15.603Z,60.47
2018-10-16T06:16:48.258Z,60.14
2018-10-16T06:19:19.582Z,59.88
2018-10-16T06:21:50.943Z,59.69
2018-10-16T06:24:22.566Z,59.54
2018-10-16T06:26:54.324Z,59.86
2018-10-16T06:29:28.867Z,60.14
2018-10-16T06:32:00.201Z,60.31
2018-10-16T06:34:31.804Z,60.28
2018-10-16T06:37:04.291Z,60.12
2018-10-16T06:39:36.044Z,59.95
2018-10-16T06:42:07.572Z,60.06
2018-10-16T06:44:38.948Z,60.20
2018-10-16T06:47:14.790Z,60.48
2018-10-16T06:49:48.142Z,60.59
2018-10-16T06:52:25.476Z,61.12
2018-10-16T06:54:59.323Z,61.54
2018-10-16T06:57:32.895Z,62.06
2018-10-16T07:00:08.134Z,62.51
2018-10-16T07:02:43.456Z,62.61
2018-10-16T07:05:17.547Z,62.65
2018-10-16T07:07:52.420Z,63.00
2018-10-16T07:10:28.533Z,63.33
2018-10-16T07:13:02.822Z,63.12
2018-10-16T07:15:34.724Z,62.94
2018-10-16T07:18:06.709Z,62.69
2018-10-16T07:20:39.235Z,62.84
2018-10-16T07:23:11.660Z,63.11
2018-10-16T07:25:43.137Z,63.18
2018-10-16T07:28:14.838Z,62.96
2018-10-16T07:30:46.420Z,62.81
2018-10-16T07:33:19.362Z,62.54
2018-10-16T07:35:51.271Z,62.32
2018-10-16T07:38:23.168Z,62.47
2018-10-16T07:40:54.759Z,62.34
2018-10-16T07:43:27.268Z,61.74
2018-10-16T07:45:59.134Z,61.06
2018-10-16T07:48:30.761Z,60.42
2018-10-16T07:51:02.386Z,59.72
2018-10-16T07:53:38.028Z,59.04
2018-10-16T07:56:10.241Z,58.59
2018-10-16T07:58:42.218Z,58.10
2018-10-16T08:01:16.890Z,58.04
2018-10-16T08:03:48.676Z,58.22
2018-10-16T08:06:20.522Z,58.14
2018-10-16T08:08:52.361Z,58.21
2018-10-16T08:11:24.519Z,58.34
2018-10-16T08:13:56.373Z,58.20
2018-10-16T08:16:29.331Z,58.21
2018-10-16T08:19:02.013Z,57.87
2018-10-16T08:21:33.856Z,57.43
2018-10-16T08:24:06.511Z,57.13
2018-10-16T08:26:38.740Z,56.91
2018-10-16T08:29:10.921Z,56.71
2018-10-16T08:31:42.953Z,56.49
2018-10-16T08:34:15.155Z,56.35
2018-10-16T08:36:47.177Z,56.19
2018-10-16T08:39:35.953Z,55.78
2018-10-16T08:43:05.603Z,56.04
2018-10-16T08:46:30.776Z,55.37
2018-10-16T08:49:55.542Z,54.54
2018-10-16T08:52:28.012Z,54.03
2018-10-16T08:55:00.449Z,53.96
2018-10-16T08:57:32.667Z,53.76
2018-10-16T09:00:04.589Z,53.40
2018-10-16T09:02:36.661Z,53.18
2018-10-16T09:05:09.667Z,53.11
2018-10-16T09:07:41.670Z,52.95
2018-10-16T09:10:14.017Z,52.69
2018-10-16T09:12:47.130Z,52.29
2018-10-16T09:15:22.217Z,51.85
2018-10-16T09:17:54.717Z,51.67
2018-10-16T09:20:26.798Z,51.39
2018-10-16T09:22:58.813Z,51.42
2018-10-16T09:25:30.910Z,51.62
2018-10-16T09:28:03.180Z,51.46
2018-10-16T09:30:34.834Z,51.56
2018-10-16T09:33:06.179Z,51.46
2018-10-16T09:35:37.884Z,51.39
2018-10-16T09:38:09.809Z,51.35
2018-10-16T09:40:44.226Z,51.79
2018-10-16T09:43:15.735Z,51.87
2018-10-16T09:45:47.075Z,52.02
2018-10-16T09:48:18.407Z,51.26
2018-10-16T09:50:49.787Z,50.64
2018-10-16T09:53:21.143Z,50.48
2018-10-16T09:55:52.477Z,49.77
2018-10-16T09:58:23.815Z,49.68
2018-10-16T10:01:12.551Z,49.32
2018-10-16T10:03:44.081Z,48.28
2018-10-16T10:06:15.416Z,47.64
2018-10-16T10:08:46.773Z,47.95
2018-10-16T10:11:18.259Z,47.70
2018-10-16T10:13:49.591Z,47.35
2018-10-16T10:16:20.946Z,46.85
2018-10-16T10:18:52.379Z,46.53
2018-10-16T10:21:23.929Z,46.18
2018-10-16T10:23:55.343Z,45.98
2018-10-16T10:26:27.879Z,45.59
2018-10-16T10:28:59.449Z,45.66
2018-10-16T10:31:31.075Z,45.71
2018-10-16T10:34:02.639Z,45.43
2018-10-16T10:36:36.397Z,45.63
2018-10-16T10:39:12.021Z,45.64
2018-10-16T10:41:43.781Z,45.38
2018-10-16T10:44:15.168Z,45.53
2018-10-16T10:46:46.531Z,44.99
2018-10-16T10:49:19.644Z,44.55
2018-10-16T10:51:51.537Z,44.84
2018-10-16T10:54:24.249Z,44.92
2018-10-16T10:56:57.371Z,45.41
2018-10-16T10:59:29.959Z,45.53
2018-10-16T11:02:02.188Z,45.00
2018-10-16T11:04:34.243Z,44.74
2018-10-16T11:07:06.273Z,44.55
2018-10-16T11:09:38.935Z,44.49
2018-10-16T11:12:10.804Z,44.61
2018-10-16T11:14:42.801Z,44.68
2018-10-16T11:17:15.979Z,44.95
2018-10-16T11:19:48.159Z,44.90
2018-10-16T11:22:20.363Z,44.58
2018-10-16T11:24:52.489Z,44.07
2018-10-16T11:27:24.993Z,44.21
2018-10-16T11:29:56.630Z,44.10
2018-10-16T11:32:28.605Z,44.11
2018-10-16T11:35:00.018Z,44.02
2018-10-16T11:37:34.113Z,43.87
2018-10-16T11:40:05.554Z,43.81
2018-10-16T11:42:36.939Z,43.20
2018-10-16T11:45:09.144Z,42.91
2018-10-16T11:47:40.748Z,42.92
2018-10-16T11:50:13.039Z,42.79
2018-10-16T11:52:44.343Z,42.75
2018-10-16T11:55:15.772Z,43.11
2018-10-16T11:57:47.105Z,42.92
2018-10-16T12:00:19.225Z,43.04
2018-10-16T12:02:50.915Z,43.19
2018-10-16T12:05:22.203Z,42.98
2018-10-16T12:07:54.465Z,43.04
2018-10-16T12:10:25.861Z,42.43
2018-10-16T12:12:57.168Z,42.21
2018-10-16T12:15:29.136Z,42.51
2018-10-16T12:18:17.242Z,42.58
2018-10-16T12:21:13.478Z,42.66
2018-10-16T12:23:44.893Z,41.96
2018-10-16T12:26:19.588Z,42.04
2018-10-16T12:28:51.076Z,42.12
2018-10-16T12:31:23.181Z,41.87
2018-10-16T12:33:58.037Z,41.95
2018-10-16T12:36:29.411Z,42.17
2018-10-16T12:39:01.135Z,42.29
2018-10-16T12:41:32.780Z,42.28
2018-10-16T12:44:04.121Z,42.16
2018-10-16T12:46:35.440Z,42.07
2018-10-16T12:49:09.451Z,42.23
2018-10-16T12:51:40.846Z,41.98
2018-10-16T12:54:12.161Z,42.18
2018-10-16T12:56:43.470Z,42.36
2018-10-16T12:59:14.901Z,41.99
2018-10-16T13:01:46.134Z,41.69
2018-10-16T13:04:17.485Z,41.60
2018-10-16T13:06:48.809Z,41.67
2018-10-16T13:09:20.123Z,41.71
2018-10-16T13:11:51.709Z,41.39
2018-10-16T13:14:23.051Z,41.58
2018-10-16T13:16:54.444Z,41.57
2018-10-16T13:19:27.754Z,41.28
2018-10-16T13:21:59.109Z,41.46
2018-10-16T13:24:30.660Z,41.59
2018-10-16T13:27:02.245Z,41.51
2018-10-16T13:29:33.780Z,41.42
2018-10-16T13:32:05.428Z,41.04
2018-10-16T13:34:36.936Z,40.83
2018-10-16T13:37:09.353Z,40.48
2018-10-16T13:39:41.033Z,40.55
2018-10-16T13:42:12.374Z,40.61
2018-10-16T13:44:43.859Z,40.89
2018-10-16T13:47:15.176Z,40.39
2018-10-16T13:49:46.557Z,40.63
2018-10-16T13:52:18.057Z,41.03
2018-10-16T13:54:49.374Z,41.10
2018-10-16T13:57:21.014Z,40.89
2018-10-16T13:59:53.632Z,40.92
2018-10-16T14:02:24.988Z,40.75
2018-10-16T14:04:56.438Z,40.88
2018-10-16T14:07:27.860Z,40.55
2018-10-16T14:09:59.206Z,40.58
2018-10-16T14:12:30.680Z,40.61
2018-10-16T14:15:02.038Z,40.49
2018-10-16T14:17:33.925Z,40.43
2018-10-16T14:20:05.287Z,39.86
2018-10-16T14:22:37.458Z,39.55
2018-10-16T14:25:10.548Z,39.57
2018-10-16T14:27:42.983Z,39.67
2018-10-16T14:30:15.680Z,39.50
2018-10-16T14:32:47.017Z,39.37
2018-10-16T14:35:18.373Z,39.46
2018-10-16T14:37:49.976Z,39.72
2018-10-16T14:40:21.651Z,39.17
2018-10-16T14:42:53.715Z,38.85
2018-10-16T14:45:25.258Z,39.17
2018-10-16T14:47:56.843Z,39.63
2018-10-16T14:50:28.255Z,39.75
2018-10-16T14:53:00.098Z,39.75
2018-10-16T14:55:31.312Z,40.04
2018-10-16T14:58:02.691Z,40.40
2018-10-16T15:00:33.954Z,40.36
2018-10-16T15:03:05.443Z,40.42
2018-10-16T15:05:37.024Z,40.29
2018-10-16T15:08:08.514Z,40.18
2018-10-16T15:10:39.826Z,39.91
2018-10-16T15:13:15.294Z,39.93
2018-10-16T15:15:46.777Z,39.94
2018-10-16T15:18:18.102Z,40.06
2018-10-16T15:20:49.401Z,40.23
2018-10-16T15:23:23.304Z,40.49
2018-10-16T15:25:54.711Z,40.85
2018-10-16T15:28:26.019Z,41.38
2018-10-16T15:30:58.099Z,41.76
2018-10-16T15:33:31.956Z,42.34
2018-10-16T15:36:04.335Z,42.75
2018-10-16T15:38:41.297Z,43.04
2018-10-16T15:41:14.133Z,43.22
2018-10-16T15:43:48.877Z,43.38
2018-10-16T15:46:21.360Z,43.43
2018-10-16T15:48:53.982Z,43.55
2018-10-16T15:51:25.239Z,43.66
2018-10-16T15:53:57.364Z,43.78
2018-10-16T15:56:28.663Z,43.88
2018-10-16T15:59:00.021Z,43.94
2018-10-16T16:01:31.748Z,44.15
2018-10-16T16:04:03.159Z,44.26
2018-10-16T16:06:34.788Z,44.43
2018-10-16T16:09:07.263Z,44.69
2018-10-16T16:11:39.271Z,44.95
2018-10-16T16:14:10.663Z,45.25
2018-10-16T16:16:42.320Z,45.45
2018-10-16T16:19:13.629Z,45.74
2018-10-16T16:21:44.924Z,46.18
2018-10-16T16:24:16.333Z,46.83
2018-10-16T16:26:47.572Z,47.33
2018-10-16T16:29:19.060Z,47.92
2018-10-16T16:31:51.040Z,48.63
2018-10-16T16:34:22.400Z,49.22
2018-10-16T16:36:54.124Z,49.48
2018-10-16T16:39:25.907Z,49.68
2018-10-16T16:41:57.812Z,50.13
2018-10-16T16:44:29.621Z,50.58
2018-10-16T16:47:01.000Z,51.02
2018-10-16T16:49:32.592Z,51.46
2018-10-16T16:52:03.947Z,51.80
2018-10-16T16:54:35.686Z,52.08
2018-10-16T16:57:07.386Z,52.35
2018-10-16T16:59:39.204Z,52.72
2018-10-16T17:02:11.042Z,52.81
2018-10-16T17:04:42.361Z,52.78
2018-10-16T17:07:13.670Z,53.06
2018-10-16T17:09:45.141Z,53.40
2018-10-16T17:12:16.649Z,53.58
2018-10-16T17:14:47.974Z,53.88
2018-10-16T17:17:19.333Z,53.98
2018-10-16T17:19:50.907Z,53.98
2018-10-16T17:22:22.505Z,54.29
2018-10-16T17:24:54.047Z,54.66
2018-10-16T17:27:25.968Z,55.03
2018-10-16T17:29:57.826Z,55.34
2018-10-16T17:32:29.159Z,55.55
2018-10-16T17:35:01.457Z,55.68
2018-10-16T17:37:33.467Z,55.89
2018-10-16T17:40:04.906Z,56.24
2018-10-16T17:42:36.246Z,56.42
2018-10-16T17:45:08.681Z,56.59
2018-10-16T17:47:39.888Z,56.67
2018-10-16T17:50:14.259Z,56.46
2018-10-16T17:52:45.560Z,56.40
2018-10-16T17:55:17.458Z,56.53
2018-10-16T17:57:48.825Z,56.80
2018-10-16T18:00:20.838Z,57.02
2018-10-16T18:02:52.300Z,57.10
2018-10-16T18:05:23.604Z,57.21
2018-10-16T18:07:55.768Z,57.43
2018-10-16T18:10:27.174Z,57.64
2018-10-16T18:12:59.844Z,57.86
2018-10-16T18:15:31.702Z,58.09
2018-10-16T18:18:03.840Z,58.35
2018-10-16T18:20:37.237Z,58.35
2018-10-16T18:23:09.504Z,58.26
2018-10-16T18:25:42.081Z,58.21
2018-10-16T18:28:14.131Z,58.31
2018-10-16T18:30:46.288Z,58.63
2018-10-16T18:33:19.171Z,58.99
2018-10-16T18:35:51.258Z,59.27
2018-10-16T18:38:23.371Z,59.29
2018-10-16T18:40:55.608Z,59.21
2018-10-16T18:43:28.212Z,58.93
2018-10-16T18:46:01.202Z,58.97
2018-10-16T18:48:33.943Z,59.24
2018-10-16T18:51:08.437Z,59.48
2018-10-16T18:53:40.418Z,59.55
2018-10-16T18:56:12.702Z,59.85
2018-10-16T18:58:45.314Z,60.15
2018-10-16T19:01:17.232Z,60.34
2018-10-16T19:03:50.674Z,60.47
2018-10-16T19:06:22.078Z,60.68
2018-10-16T19:08:54.145Z,60.70
2018-10-16T19:11:26.381Z,60.62
2018-10-16T19:13:58.946Z,60.52
2018-10-16T19:16:31.019Z,60.49
2018-10-16T19:19:03.207Z,60.34
2018-10-16T19:21:35.110Z,60.32
2018-10-16T19:24:06.866Z,60.33
2018-10-16T19:26:39.546Z,60.61
2018-10-16T19:29:11.915Z,61.07
2018-10-16T19:31:44.944Z,61.43
2018-10-16T19:34:16.875Z,61.39
2018-10-16T19:36:50.784Z,61.31
2018-10-16T19:39:22.648Z,61.36
2018-10-16T19:41:54.547Z,61.51
2018-10-16T19:44:26.501Z,61.67
2018-10-16T19:46:58.966Z,61.92
2018-10-16T19:49:30.621Z,62.25
2018-10-16T19:52:02.353Z,62.56
2018-10-16T19:54:34.957Z,62.57
2018-10-16T19:57:07.637Z,62.52
2018-10-16T19:59:39.966Z,62.74
2018-10-16T20:02:11.623Z,63.07
2018-10-16T20:04:44.257Z,63.17
2018-10-16T20:07:16.454Z,63.16
2018-10-16T20:09:48.749Z,63.15
2018-10-16T20:12:21.015Z,63.34
2018-10-16T20:14:53.510Z,63.60
2018-10-16T20:17:26.297Z,63.74
2018-10-16T20:19:58.931Z,63.67
2018-10-16T20:22:31.666Z,63.61
2018-10-16T20:25:06.999Z,63.61
2018-10-16T20:27:39.930Z,63.50
2018-10-16T20:30:13.201Z,63.47
2018-10-16T20:32:48.242Z,63.34
2018-10-16T20:35:20.905Z,63.30
2018-10-16T20:37:53.191Z,63.38
2018-10-16T20:40:25.595Z,63.41
2018-10-16T20:42:58.019Z,63.43
2018-10-16T20:45:30.558Z,63.27
2018-10-16T20:48:02.772Z,63.47
2018-10-16T20:50:38.090Z,63.44
2018-10-16T20:53:10.160Z,63.40
2018-10-16T20:55:51.442Z,63.26
2018-10-16T20:58:23.519Z,63.16
2018-10-16T21:00:56.182Z,63.16
2018-10-16T21:03:28.237Z,63.23
2018-10-16T21:06:00.778Z,63.31
2018-10-16T21:08:32.580Z,63.46
2018-10-16T21:11:04.828Z,63.57
2018-10-16T21:13:37.514Z,63.70
2018-10-16T21:16:09.680Z,63.68
2018-10-16T21:18:42.118Z,63.78
2018-10-16T21:21:13.861Z,63.99
2018-10-16T21:23:57.087Z,64.21
2018-10-16T21:26:18.613Z,64.44
2018-10-16T21:28:50.699Z,64.67
2018-10-16T21:31:23.621Z,64.72
2018-10-16T21:33:55.778Z,64.38
2018-10-16T21:36:27.842Z,64.12
2018-10-16T22:10:35.980Z,65.70
2018-10-16T23:16:16.108Z,66.45
2018-10-16T23:57:57.517Z,67.74
